Time;durP1;ratioP1;P1;durP2;ratioP2;P2;SDS_P1;SDS_P2;PMS_P1;PMS_P2;Temp;Humidity;BMP_temperature;BMP_pressure;BME280_temperature;BME280_humidity;BME280_pressure;Samples;Min_cycle;Max_cycle;Signal;HPM_P1;HPM_P2
2021/10/31 00:00:43;;;;;;;20.57;18.00;;;11.20;1.00;12.40;99838.00;;;;5027373;28;20544;-84
2021/10/31 00:03:14;;;;;;;19.87;17.97;;;11.20;1.00;12.50;99857.00;;;;5026845;28;20449;-79
2021/10/31 00:05:42;;;;;;;19.80;17.67;;;11.30;1.00;12.50;99861.00;;;;5026855;28;20489;-80
2021/10/31 00:08:11;;;;;;;21.40;19.20;;;11.20;1.00;12.40;99840.00;;;;5021371;28;20981;-80
2021/10/31 00:10:39;;;;;;;21.13;18.93;;;11.20;1.00;12.40;99851.00;;;;5005730;28;20468;-79
2021/10/31 00:13:10;;;;;;;20.60;18.50;;;11.20;1.00;12.30;99825.00;;;;5020755;28;20461;-81
2021/10/31 00:15:38;;;;;;;21.23;19.20;;;11.20;1.00;12.40;99849.00;;;;5021186;28;20445;-79
2021/10/31 00:18:07;;;;;;;20.93;18.87;;;11.20;1.00;12.40;99853.00;;;;5016832;28;20482;-82
2021/10/31 00:20:36;;;;;;;19.97;17.97;;;11.20;1.00;12.40;99860.00;;;;5018326;28;20454;-81
2021/10/31 00:23:05;;;;;;;21.03;18.37;;;11.10;1.00;12.30;99845.00;;;;5016880;28;20492;-82
2021/10/31 00:25:33;;;;;;;20.63;18.50;;;11.20;1.00;12.30;99867.00;;;;5016818;28;20973;-79
2021/10/31 00:28:02;;;;;;;19.87;17.87;;;11.10;1.00;12.20;99858.00;;;;5018044;28;20492;-80
2021/10/31 00:30:30;;;;;;;20.43;18.20;;;11.10;1.00;12.20;99855.00;;;;5020477;28;20456;-79
2021/10/31 00:32:58;;;;;;;19.90;18.00;;;11.10;1.00;12.20;99839.00;;;;5020274;28;20493;-79
2021/10/31 00:35:27;;;;;;;20.63;18.63;;;11.00;1.00;12.20;99868.00;;;;5021437;28;20484;-78
2021/10/31 00:37:57;;;;;;;22.60;17.73;;;11.00;1.00;12.20;99862.00;;;;5005170;28;20488;-80
2021/10/31 00:40:25;;;;;;;20.50;18.37;;;11.00;1.00;12.20;99856.00;;;;5027693;28;20466;-82
2021/10/31 00:42:54;;;;;;;21.43;19.40;;;11.00;1.00;12.10;99858.00;;;;5018642;28;20464;-81
2021/10/31 00:45:22;;;;;;;22.20;20.00;;;11.00;1.00;12.20;99862.00;;;;5026395;28;20926;-80
2021/10/31 00:47:52;;;;;;;21.33;19.13;;;10.90;1.00;12.20;99890.00;;;;5020400;28;20461;-81
2021/10/31 00:50:22;;;;;;;21.50;19.33;;;10.90;1.00;12.20;99895.00;;;;5021683;28;20489;-82
2021/10/31 00:52:51;;;;;;;20.60;18.60;;;10.90;1.00;12.10;99881.00;;;;5004535;28;20480;-81
2021/10/31 00:55:22;;;;;;;20.47;18.27;;;11.00;1.00;12.30;99892.00;;;;5003883;28;21100;-82
2021/10/31 00:57:51;;;;;;;21.60;19.40;;;11.00;1.00;12.30;99903.00;;;;5034437;28;20461;-83
2021/10/31 01:00:19;;;;;;;22.17;19.87;;;11.10;1.00;12.40;99856.00;;;;5033869;28;20977;-83
2021/10/31 01:02:48;;;;;;;21.27;18.97;;;11.10;1.00;12.40;99868.00;;;;5017201;28;20993;-82
2021/10/31 01:05:21;;;;;;;19.80;17.77;;;11.20;1.00;12.40;99873.00;;;;5023288;28;20457;-81
2021/10/31 01:08:30;;;;;;;19.63;17.47;;;11.20;1.00;12.50;99867.00;;;;5020983;28;20544;-80
2021/10/31 01:11:19;;;;;;;21.40;19.30;;;11.30;1.00;12.50;99881.00;;;;4974758;28;20458;-80
2021/10/31 01:14:08;;;;;;;21.70;19.50;;;11.20;1.00;12.50;99880.00;;;;5019239;28;20556;-81
2021/10/31 01:16:50;;;;;;;19.47;17.57;;;11.30;1.00;12.60;99827.00;;;;5027635;28;20486;-83
2021/10/31 01:19:50;;;;;;;21.50;19.40;;;11.30;1.00;12.60;99880.00;;;;5035258;28;20476;-80
2021/10/31 01:22:38;;;;;;;20.40;18.20;;;11.30;1.00;12.60;99893.00;;;;5023528;28;20452;-80
2021/10/31 01:25:31;;;;;;;21.03;18.83;;;11.30;1.00;12.60;99886.00;;;;5026256;28;20519;-81
2021/10/31 01:28:27;;;;;;;19.70;17.60;;;11.30;1.00;12.60;99875.00;;;;5025862;28;20479;-81
2021/10/31 01:31:09;;;;;;;20.07;18.07;;;11.30;1.00;12.60;99875.00;;;;5022515;28;20871;-80
2021/10/31 01:33:49;;;;;;;20.57;18.60;;;11.30;1.00;12.60;99875.00;;;;5005600;28;20516;-81
2021/10/31 01:36:28;;;;;;;20.73;18.63;;;11.30;1.00;12.60;99846.00;;;;5004667;28;20480;-80
2021/10/31 01:39:05;;;;;;;22.43;20.23;;;11.30;1.00;12.60;99872.00;;;;5034379;28;20557;-81
2021/10/31 01:41:46;;;;;;;19.87;17.83;;;11.20;1.00;12.50;99830.00;;;;5033263;28;20468;-81
2021/10/31 01:44:27;;;;;;;21.13;18.93;;;11.20;1.00;12.60;99874.00;;;;5029763;28;20453;-81
2021/10/31 01:47:06;;;;;;;19.90;17.80;;;11.30;1.00;12.60;99871.00;;;;5043163;28;20457;-82
2021/10/31 01:49:46;;;;;;;21.73;19.50;;;11.30;1.00;12.50;99862.00;;;;5020600;28;20553;-81
2021/10/31 01:52:21;;;;;;;20.87;18.80;;;11.30;1.00;12.60;99846.00;;;;5011299;28;20838;-81
2021/10/31 01:54:56;;;;;;;20.10;18.20;;;11.30;1.00;12.60;99856.00;;;;5029731;28;20489;-81
2021/10/31 01:57:28;;;;;;;21.30;19.20;;;11.30;1.00;12.60;99857.00;;;;5018476;28;20449;-80
2021/10/31 02:00:04;;;;;;;20.67;18.67;;;11.40;1.00;12.70;99857.00;;;;5023313;28;20906;-79
2021/10/31 02:02:42;;;;;;;21.50;19.40;;;11.40;1.00;12.70;99834.00;;;;5025925;28;20528;-81
2021/10/31 02:05:12;;;;;;;20.63;18.63;;;11.40;1.00;12.70;99856.00;;;;5014356;28;20466;-80
2021/10/31 02:07:52;;;;;;;21.70;19.37;;;11.30;1.00;12.60;99843.00;;;;5023610;28;20453;-82
2021/10/31 02:10:23;;;;;;;23.70;20.70;;;11.20;1.00;12.50;99823.00;;;;5024167;28;20600;-80
2021/10/31 02:12:53;;;;;;;25.60;20.50;;;11.10;1.00;12.40;99788.00;;;;5023457;28;20463;-82
2021/10/31 02:15:24;;;;;;;26.20;23.40;;;10.90;1.00;12.20;99840.00;;;;5024375;28;20522;-80
2021/10/31 02:17:55;;;;;;;24.60;21.47;;;10.80;1.00;12.20;99830.00;;;;5008144;28;20500;-82
2021/10/31 02:20:25;;;;;;;25.00;20.90;;;10.80;1.00;12.20;99804.00;;;;5027400;28;20484;-83
2021/10/31 02:22:57;;;;;;;23.83;20.83;;;10.80;1.00;12.30;99867.00;;;;5025577;28;20505;-82
2021/10/31 02:25:27;;;;;;;23.70;20.50;;;10.90;1.00;12.30;99870.00;;;;5024525;28;20523;-80
2021/10/31 02:27:56;;;;;;;26.27;23.53;;;10.90;1.00;12.30;99839.00;;;;5021594;28;20504;-82
2021/10/31 02:30:24;;;;;;;25.03;21.40;;;10.90;1.00;12.20;99859.00;;;;5008177;28;20469;-81
2021/10/31 02:32:53;;;;;;;23.00;20.67;;;10.90;1.00;12.30;99864.00;;;;5025666;28;20452;-80
2021/10/31 02:35:23;;;;;;;22.53;20.33;;;10.90;1.00;12.50;99877.00;;;;5021402;28;20462;-83
2021/10/31 02:37:59;;;;;;;23.27;20.90;;;10.90;1.00;12.40;99802.00;;;;5032876;28;20462;-81
2021/10/31 02:40:28;;;;;;;24.43;21.83;;;10.90;1.00;12.40;99836.00;;;;5026288;28;20456;-82
2021/10/31 02:42:56;;;;;;;23.57;21.27;;;10.90;1.00;12.30;99789.00;;;;5008604;28;20468;-80
2021/10/31 02:45:24;;;;;;;25.63;23.00;;;10.80;1.00;12.30;99862.00;;;;5015319;28;20533;-80
2021/10/31 02:47:56;;;;;;;29.57;22.93;;;10.70;1.00;12.20;99833.00;;;;5004716;28;20490;-81
2021/10/31 02:50:29;;;;;;;25.43;22.87;;;10.70;1.00;12.20;99829.00;;;;5022684;28;20569;-81
2021/10/31 02:53:19;;;;;;;26.47;23.57;;;10.60;1.00;12.10;99846.00;;;;5013104;28;20548;-80
2021/10/31 02:56:06;;;;;;;25.80;23.13;;;10.70;1.00;12.10;99846.00;;;;5026743;28;21021;-80
2021/10/31 02:58:46;;;;;;;25.27;22.67;;;10.60;1.00;12.20;99844.00;;;;5024659;28;20450;-83
2021/10/31 03:01:16;;;;;;;25.37;22.60;;;10.60;1.00;12.20;99846.00;;;;5021176;28;20461;-83
2021/10/31 03:03:46;;;;;;;25.87;23.13;;;10.60;1.00;12.20;99862.00;;;;5007327;28;20893;-80
2021/10/31 03:06:20;;;;;;;28.40;22.27;;;10.70;1.00;12.10;99825.00;;;;5023854;28;20450;-81
2021/10/31 03:08:50;;;;;;;26.47;22.60;;;10.80;1.00;12.20;99854.00;;;;5024372;28;20491;-81
2021/10/31 03:11:18;;;;;;;26.27;22.67;;;10.70;1.00;12.20;99837.00;;;;5021752;28;20476;-81
2021/10/31 03:13:47;;;;;;;24.27;21.67;;;10.70;1.00;12.20;99842.00;;;;5024997;28;20461;-81
2021/10/31 03:16:15;;;;;;;25.27;20.90;;;10.70;1.00;12.20;99844.00;;;;5024870;28;20449;-82
2021/10/31 03:18:44;;;;;;;25.30;22.67;;;10.60;1.00;12.20;99850.00;;;;5029834;28;20469;-83
2021/10/31 03:21:13;;;;;;;23.90;21.27;;;10.60;1.00;12.20;99838.00;;;;5042968;28;20464;-82
2021/10/31 03:23:41;;;;;;;26.47;23.63;;;10.60;1.00;12.10;99831.00;;;;5031862;28;20452;-79
2021/10/31 03:26:11;;;;;;;24.70;22.10;;;10.50;1.00;12.00;99850.00;;;;5025958;28;20541;-80
2021/10/31 03:28:39;;;;;;;23.87;21.33;;;10.40;1.00;11.90;99841.00;;;;5007176;28;20532;-81
2021/10/31 03:31:08;;;;;;;25.47;22.77;;;10.30;1.00;11.90;99807.00;;;;5007243;28;20469;-83
2021/10/31 03:33:36;;;;;;;28.90;24.27;;;10.20;1.00;11.70;99849.00;;;;5022420;28;20441;-81
2021/10/31 03:36:05;;;;;;;31.43;24.50;;;10.20;1.00;11.60;99840.00;;;;5007680;28;20450;-82
2021/10/31 03:38:33;;;;;;;29.93;25.20;;;10.00;1.00;11.50;99851.00;;;;5023176;28;21115;-81
2021/10/31 03:41:02;;;;;;;29.63;25.90;;;9.90;1.00;11.50;99813.00;;;;5015115;28;20550;-81
2021/10/31 03:43:32;;;;;;;23.60;21.20;;;9.90;1.00;11.40;99774.00;;;;5022863;28;20448;-81
2021/10/31 03:46:01;;;;;;;29.83;25.60;;;9.90;1.00;11.40;99851.00;;;;5000994;28;20456;-81
2021/10/31 03:48:29;;;;;;;30.57;23.90;;;9.90;1.00;11.30;99847.00;;;;5021826;28;20553;-80
2021/10/31 03:50:58;;;;;;;37.70;24.87;;;9.80;1.00;11.30;99850.00;;;;5005149;28;21041;-80
2021/10/31 03:53:26;;;;;;;31.70;25.77;;;9.70;1.00;11.20;99856.00;;;;5023210;28;20828;-82
2021/10/31 03:55:55;;;;;;;32.23;25.70;;;9.70;1.00;11.00;99842.00;;;;5022697;28;20524;-81
2021/10/31 03:58:23;;;;;;;29.80;24.33;;;9.60;1.00;11.20;99837.00;;;;5024689;28;20484;-82
2021/10/31 04:00:53;;;;;;;35.10;28.20;;;9.80;1.00;11.20;99866.00;;;;5023135;28;20453;-81
2021/10/31 04:03:22;;;;;;;33.43;25.33;;;9.70;1.00;11.20;99862.00;;;;5021664;28;20456;-80
2021/10/31 04:05:50;;;;;;;29.60;25.00;;;9.70;1.00;11.20;99855.00;;;;5003754;28;20793;-82
2021/10/31 04:08:18;;;;;;;32.73;26.43;;;9.70;1.00;11.10;99852.00;;;;5019698;28;20487;-82
2021/10/31 04:10:47;;;;;;;36.50;28.40;;;9.80;1.00;11.10;99858.00;;;;5008985;28;20547;-82
2021/10/31 04:13:16;;;;;;;34.67;27.57;;;9.50;1.00;10.80;99798.00;;;;5022202;28;20452;-82
2021/10/31 04:15:45;;;;;;;27.57;24.30;;;9.40;1.00;11.00;99863.00;;;;5013832;28;20461;-81
2021/10/31 04:18:15;;;;;;;28.37;25.57;;;9.40;1.00;10.90;99854.00;;;;5017192;28;20474;-82
2021/10/31 04:20:43;;;;;;;28.70;25.10;;;9.40;1.00;10.90;99840.00;;;;5033429;28;20452;-81
2021/10/31 04:23:12;;;;;;;30.60;27.20;;;9.40;1.00;10.90;99859.00;;;;5017473;28;20540;-81
2021/10/31 04:25:41;;;;;;;29.97;25.90;;;9.40;1.00;11.00;99853.00;;;;5028786;28;20462;-80
2021/10/31 04:28:09;;;;;;;32.60;25.60;;;9.50;1.00;10.90;99865.00;;;;5009311;28;20485;-82
2021/10/31 04:30:39;;;;;;;30.30;26.50;;;9.50;1.00;10.90;99859.00;;;;5014382;28;20880;-82
2021/10/31 04:33:10;;;;;;;30.03;26.60;;;9.50;1.00;10.90;99873.00;;;;5023030;28;20444;-82
2021/10/31 04:35:40;;;;;;;33.43;28.13;;;9.50;1.00;10.90;99868.00;;;;5015510;28;20464;-83
2021/10/31 04:38:12;;;;;;;29.50;26.33;;;9.50;1.00;10.90;99875.00;;;;5039629;28;20503;-82
2021/10/31 04:40:41;;;;;;;33.20;26.03;;;9.40;1.00;10.90;99858.00;;;;5019609;28;20547;-80
2021/10/31 04:43:11;;;;;;;30.53;25.67;;;9.30;1.00;10.80;99831.00;;;;5024956;28;20500;-81
2021/10/31 04:45:41;;;;;;;27.77;24.87;;;9.10;1.00;10.70;99809.00;;;;5023795;28;20462;-81
2021/10/31 04:48:11;;;;;;;27.30;24.47;;;9.10;1.00;10.70;99869.00;;;;5010915;28;20481;-81
2021/10/31 04:50:41;;;;;;;29.20;25.07;;;9.10;1.00;10.60;99865.00;;;;5033167;28;20575;-81
2021/10/31 04:53:10;;;;;;;26.63;23.77;;;9.00;1.00;10.60;99856.00;;;;5027738;28;20454;-83
2021/10/31 04:55:40;;;;;;;28.37;25.37;;;9.10;1.00;10.60;99869.00;;;;5022273;28;20449;-83
2021/10/31 04:58:10;;;;;;;31.23;27.13;;;9.00;1.00;10.50;99860.00;;;;5004257;28;20483;-81
2021/10/31 05:00:39;;;;;;;29.97;26.47;;;8.90;1.00;10.50;99869.00;;;;5020275;28;20521;-81
2021/10/31 05:03:08;;;;;;;31.07;27.40;;;8.90;1.00;10.50;99862.00;;;;5018587;28;20453;-82
2021/10/31 05:05:37;;;;;;;30.07;25.80;;;8.90;1.00;10.50;99860.00;;;;5011208;28;20508;-80
2021/10/31 05:08:07;;;;;;;28.50;25.47;;;9.00;1.00;10.50;99861.00;;;;5020572;28;20521;-82
2021/10/31 05:10:35;;;;;;;29.27;26.17;;;9.00;1.00;10.50;99850.00;;;;5022672;28;20466;-82
2021/10/31 05:13:04;;;;;;;31.00;25.50;;;9.00;1.00;10.50;99851.00;;;;5011108;28;20975;-82
2021/10/31 05:15:33;;;;;;;30.10;26.90;;;8.90;1.00;10.50;99836.00;;;;5026039;28;20529;-83
2021/10/31 05:18:01;;;;;;;28.20;23.47;;;8.90;1.00;10.50;99819.00;;;;5036882;28;20512;-83
2021/10/31 05:20:30;;;;;;;32.13;27.07;;;9.00;1.00;10.50;99854.00;;;;5037000;28;20455;-82
2021/10/31 05:22:58;;;;;;;28.57;23.50;;;9.00;1.00;10.50;99828.00;;;;5038801;28;20480;-82
2021/10/31 05:25:28;;;;;;;26.73;23.83;;;9.00;1.00;10.40;99820.00;;;;5043933;28;20441;-82
2021/10/31 05:27:57;;;;;;;30.63;27.10;;;8.90;1.00;10.50;99859.00;;;;5022683;28;20468;-82
2021/10/31 05:30:25;;;;;;;29.43;25.47;;;8.80;1.00;10.40;99851.00;;;;5023921;28;20456;-82
2021/10/31 05:32:53;;;;;;;30.53;26.77;;;8.70;1.00;10.40;99846.00;;;;5040626;28;20497;-81
2021/10/31 05:35:22;;;;;;;36.40;30.90;;;8.70;1.00;10.40;99849.00;;;;5032844;28;20464;-81
2021/10/31 05:37:56;;;;;;;28.03;25.17;;;8.80;1.00;10.40;99865.00;;;;5010322;28;20876;-81
2021/10/31 05:40:28;;;;;;;29.70;26.50;;;8.90;1.00;10.50;99860.00;;;;5009369;28;20466;-81
2021/10/31 05:42:57;;;;;;;29.00;26.03;;;8.90;1.00;10.60;99862.00;;;;5032321;28;20461;-82
2021/10/31 05:45:26;;;;;;;30.43;27.23;;;9.00;1.00;10.70;99845.00;;;;5014245;28;20458;-81
2021/10/31 05:47:55;;;;;;;27.73;24.87;;;9.10;1.00;10.80;99839.00;;;;5033583;28;20491;-81
2021/10/31 05:50:23;;;;;;;26.83;24.00;;;9.20;1.00;10.90;99847.00;;;;5035082;28;20540;-80
2021/10/31 05:52:52;;;;;;;27.70;24.73;;;9.20;1.00;11.00;99847.00;;;;5008679;28;20501;-80
2021/10/31 05:55:20;;;;;;;26.20;23.50;;;9.30;1.00;11.00;99843.00;;;;5007845;28;21433;-80
2021/10/31 05:57:50;;;;;;;27.00;24.20;;;9.30;1.00;11.10;99778.00;;;;5016372;28;20495;-81
2021/10/31 06:00:19;;;;;;;25.00;22.50;;;9.40;1.00;11.20;99828.00;;;;5026271;28;20531;-81
2021/10/31 06:02:47;;;;;;;26.40;23.70;;;9.40;1.00;11.20;99838.00;;;;5017787;28;20465;-80
2021/10/31 06:05:17;;;;;;;27.30;23.87;;;9.50;1.00;11.20;99760.00;;;;5009788;28;20458;-81
2021/10/31 06:07:46;;;;;;;28.47;23.93;;;9.50;1.00;11.20;99769.00;;;;5019341;28;20453;-81
2021/10/31 06:10:15;;;;;;;29.50;25.43;;;9.50;1.00;11.20;99813.00;;;;5018448;28;20458;-82
2021/10/31 06:12:45;;;;;;;37.17;30.47;;;9.40;1.00;11.20;99795.00;;;;5021760;28;20485;-81
2021/10/31 06:15:18;;;;;;;29.60;26.60;;;9.50;1.00;11.20;99777.00;;;;5018814;28;20454;-82
2021/10/31 06:17:48;;;;;;;33.23;29.83;;;9.50;1.00;11.20;99794.00;;;;5020427;28;20488;-82
2021/10/31 06:20:18;;;;;;;27.23;23.77;;;9.60;1.00;11.20;99801.00;;;;5018380;28;20461;-82
2021/10/31 06:22:46;;;;;;;26.47;23.37;;;9.60;1.00;11.30;99794.00;;;;5019985;28;20492;-82
2021/10/31 06:25:14;;;;;;;26.90;23.50;;;9.70;1.00;11.30;99800.00;;;;5021241;28;21271;-82
2021/10/31 06:27:43;;;;;;;26.60;23.70;;;9.70;1.00;11.30;99788.00;;;;5023024;28;20454;-83
2021/10/31 06:30:12;;;;;;;26.97;24.13;;;9.70;1.00;11.30;99805.00;;;;5035898;28;20480;-83
2021/10/31 06:32:42;;;;;;;29.70;26.50;;;9.70;1.00;11.30;99807.00;;;;5038397;28;20494;-83
2021/10/31 06:35:10;;;;;;;29.40;26.30;;;9.70;1.00;11.30;99809.00;;;;5020272;28;20461;-80
2021/10/31 06:37:39;;;;;;;31.03;27.80;;;9.80;1.00;11.40;99786.00;;;;5030193;28;20564;-80
2021/10/31 06:40:09;;;;;;;29.10;26.07;;;9.80;1.00;11.40;99784.00;;;;5011188;28;20532;-81
2021/10/31 06:42:38;;;;;;;28.77;25.67;;;9.90;1.00;11.50;99799.00;;;;5028423;28;20467;-83
2021/10/31 06:45:08;;;;;;;29.73;26.80;;;10.00;1.00;11.60;99756.00;;;;5032114;28;20448;-83
2021/10/31 06:47:36;;;;;;;30.73;27.63;;;10.10;1.00;11.60;99805.00;;;;5023825;28;21290;-83
2021/10/31 06:50:08;;;;;;;32.70;29.37;;;10.10;1.00;11.70;99777.00;;;;5042742;28;20456;-81
2021/10/31 06:52:36;;;;;;;34.00;29.20;;;10.20;1.00;11.70;99792.00;;;;5041214;28;20589;-83
2021/10/31 06:55:09;;;;;;;35.60;31.23;;;10.20;1.00;11.60;99804.00;;;;5008571;28;20501;-81
2021/10/31 06:57:39;;;;;;;31.77;28.47;;;10.20;1.00;11.80;99796.00;;;;5005054;28;20552;-81
2021/10/31 07:00:09;;;;;;;32.47;27.83;;;10.30;1.00;11.80;99785.00;;;;5019809;28;20457;-81
2021/10/31 07:02:38;;;;;;;29.87;26.80;;;10.20;1.00;11.90;99788.00;;;;5020804;28;20498;-80
2021/10/31 07:05:09;;;;;;;34.73;29.33;;;10.30;1.00;11.90;99798.00;;;;5001415;28;20456;-81
2021/10/31 07:07:38;;;;;;;30.87;27.70;;;10.40;1.00;12.00;99797.00;;;;5002159;28;20525;-80
2021/10/31 07:10:07;;;;;;;30.37;27.10;;;10.50;1.00;12.10;99788.00;;;;5020320;28;21049;-81
2021/10/31 07:12:37;;;;;;;28.77;25.80;;;10.60;1.00;12.20;99790.00;;;;5003159;28;20481;-83
2021/10/31 07:15:06;;;;;;;28.17;25.27;;;10.70;1.00;12.30;99792.00;;;;5006707;28;20481;-82
2021/10/31 07:17:35;;;;;;;25.97;23.37;;;10.80;1.00;12.40;99780.00;;;;5030993;28;20472;-81
2021/10/31 07:20:04;;;;;;;25.83;23.23;;;11.00;1.00;12.50;99783.00;;;;5030443;28;20454;-81
2021/10/31 07:22:34;;;;;;;26.60;24.00;;;11.10;1.00;12.60;99777.00;;;;5021063;28;20461;-81
2021/10/31 07:25:05;;;;;;;25.10;22.63;;;11.20;1.00;12.80;99777.00;;;;5023034;28;20451;-82
2021/10/31 07:27:35;;;;;;;25.87;23.30;;;11.20;1.00;12.90;99767.00;;;;5017555;28;20973;-82
2021/10/31 07:30:05;;;;;;;26.63;23.93;;;11.30;1.00;12.90;99753.00;;;;5023996;28;20950;-81
2021/10/31 07:32:33;;;;;;;27.50;24.60;;;11.30;1.00;12.90;99739.00;;;;5025416;28;20484;-84
2021/10/31 07:35:02;;;;;;;26.87;24.17;;;11.30;1.00;13.00;99771.00;;;;5030871;28;20446;-81
2021/10/31 07:37:30;;;;;;;26.93;24.30;;;11.50;1.00;13.00;99713.00;;;;5032657;28;20516;-80
2021/10/31 07:40:02;;;;;;;27.30;24.47;;;11.50;1.00;13.20;99738.00;;;;5033684;28;20469;-81
2021/10/31 07:42:30;;;;;;;25.70;23.20;;;11.60;1.00;13.30;99642.00;;;;5025447;28;20472;-81
2021/10/31 07:45:00;;;;;;;24.90;22.50;;;11.80;1.00;13.50;99742.00;;;;5027998;28;20446;-81
2021/10/31 07:47:28;;;;;;;25.93;23.40;;;11.90;1.00;13.60;99755.00;;;;5039062;28;20460;-81
2021/10/31 07:49:57;;;;;;;24.43;22.13;;;12.10;1.00;13.80;99751.00;;;;5038405;28;20476;-79
2021/10/31 07:52:25;;;;;;;26.43;23.60;;;12.20;1.00;13.90;99750.00;;;;5044152;28;20453;-81
2021/10/31 07:54:53;;;;;;;23.27;20.97;;;12.30;1.00;14.00;99745.00;;;;5033797;28;20521;-82
2021/10/31 07:57:25;;;;;;;25.17;22.80;;;12.50;1.00;14.10;99743.00;;;;5017293;28;20546;-82
2021/10/31 07:59:54;;;;;;;38.07;34.10;;;12.70;1.00;14.10;99737.00;;;;5032846;28;20505;-82
2021/10/31 08:02:22;;;;;;;32.17;29.00;;;12.80;1.00;14.20;99747.00;;;;5036130;28;20448;-83
2021/10/31 08:04:51;;;;;;;29.87;26.97;;;12.90;1.00;14.20;99726.00;;;;5030110;28;20449;-81
2021/10/31 08:07:26;;;;;;;26.40;23.70;;;12.90;1.00;14.20;99734.00;;;;5010021;28;20557;-81
2021/10/31 08:09:55;;;;;;;23.43;21.23;;;13.00;1.00;14.20;99729.00;;;;5008939;28;20487;-81
2021/10/31 08:12:26;;;;;;;29.03;23.90;;;13.10;1.00;14.20;99714.00;;;;5018637;28;20475;-81
2021/10/31 08:14:56;;;;;;;31.03;26.10;;;13.10;1.00;14.10;99723.00;;;;5007925;28;20536;-81
2021/10/31 08:17:24;;;;;;;28.07;25.17;;;13.20;1.00;14.30;99732.00;;;;5025589;28;20449;-81
2021/10/31 08:19:53;;;;;;;23.63;21.37;;;13.30;1.00;14.30;99715.00;;;;5011426;28;20483;-80
2021/10/31 08:22:22;;;;;;;21.57;19.57;;;13.30;1.00;14.30;99726.00;;;;5017658;28;20459;-81
2021/10/31 08:24:50;;;;;;;20.57;18.47;;;13.30;1.00;14.30;99705.00;;;;5010129;28;20449;-81
2021/10/31 08:27:20;;;;;;;22.40;18.23;;;13.40;1.00;14.40;99708.00;;;;5009568;28;20497;-82
2021/10/31 08:29:52;;;;;;;20.63;18.63;;;13.40;1.00;14.50;99701.00;;;;5024782;28;20477;-81
2021/10/31 08:32:23;;;;;;;22.43;20.13;;;13.60;1.00;14.60;99698.00;;;;5002404;28;20480;-82
2021/10/31 08:34:52;;;;;;;21.60;17.93;;;13.60;1.00;14.60;99688.00;;;;5025843;28;20460;-81
2021/10/31 08:37:21;;;;;;;17.63;16.00;;;13.70;1.00;14.60;99678.00;;;;5008494;28;20465;-81
2021/10/31 08:39:50;;;;;;;14.33;13.03;;;13.80;1.00;14.80;99684.00;;;;5011635;28;20512;-81
2021/10/31 08:42:18;;;;;;;15.73;14.33;;;13.90;1.00;14.90;99676.00;;;;5011095;28;20534;-81
2021/10/31 08:44:49;;;;;;;14.00;12.67;;;13.90;1.00;14.90;99681.00;;;;5028603;28;20461;-82
2021/10/31 08:47:20;;;;;;;17.77;16.07;;;14.00;1.00;15.00;99684.00;;;;5011810;28;20472;-82
2021/10/31 08:49:51;;;;;;;23.13;20.63;;;14.10;1.00;15.00;99604.00;;;;5030339;28;20480;-82
2021/10/31 08:52:21;;;;;;;16.53;14.93;;;14.30;1.00;15.20;99668.00;;;;5029078;28;20453;-81
2021/10/31 08:54:49;;;;;;;12.40;11.30;;;14.40;1.00;15.30;99588.00;;;;5020586;28;20483;-81
2021/10/31 08:57:18;;;;;;;14.97;12.30;;;14.60;1.00;15.50;99659.00;;;;5021436;28;20500;-81
2021/10/31 08:59:48;;;;;;;12.03;10.83;;;14.70;1.00;15.50;99663.00;;;;5043068;28;20465;-82
2021/10/31 09:02:17;;;;;;;12.13;10.93;;;14.80;1.00;15.70;99648.00;;;;5038416;28;20475;-82
2021/10/31 09:04:46;;;;;;;13.90;11.03;;;14.90;1.00;15.70;99667.00;;;;5032741;28;20453;-81
2021/10/31 09:07:15;;;;;;;10.20;9.20;;;14.90;1.00;15.70;99677.00;;;;5011407;28;20514;-81
2021/10/31 09:09:47;;;;;;;11.40;10.20;;;15.00;1.00;15.70;99635.00;;;;5004487;28;20490;-82
2021/10/31 09:12:17;;;;;;;11.27;10.10;;;15.10;1.00;15.80;99637.00;;;;5022175;28;20457;-81
2021/10/31 09:14:46;;;;;;;10.17;9.17;;;15.00;1.00;15.90;99661.00;;;;5037320;28;20533;-82
2021/10/31 09:17:17;;;;;;;9.63;8.73;;;15.20;1.00;16.10;99664.00;;;;5050264;28;20444;-81
2021/10/31 09:19:46;;;;;;;12.70;11.40;;;15.50;1.00;16.30;99664.00;;;;5029239;28;20475;-83
2021/10/31 09:22:15;;;;;;;10.10;9.20;;;15.60;1.00;16.40;99647.00;;;;5040974;28;20437;-82
2021/10/31 09:24:45;;;;;;;10.83;9.83;;;15.70;1.00;16.50;99656.00;;;;5029403;28;21151;-80
2021/10/31 09:27:15;;;;;;;10.17;9.17;;;15.90;1.00;16.70;99651.00;;;;5037716;28;20453;-82
2021/10/31 09:29:46;;;;;;;9.40;8.50;;;16.10;1.00;16.90;99676.00;;;;5029838;28;20462;-82
2021/10/31 09:32:16;;;;;;;9.60;8.70;;;16.20;1.00;16.80;99644.00;;;;5008160;28;20445;-81
2021/10/31 09:34:46;;;;;;;8.43;7.63;;;16.30;1.00;17.10;99641.00;;;;5030585;28;21053;-80
2021/10/31 09:37:15;;;;;;;8.40;7.60;;;16.50;1.00;17.20;99639.00;;;;4999661;28;20477;-81
2021/10/31 09:39:50;;;;;;;9.83;7.37;;;16.50;1.00;17.20;99647.00;;;;5024000;28;20567;-82
2021/10/31 09:42:18;;;;;;;9.00;6.90;;;16.50;1.00;17.20;99640.00;;;;5009653;28;20607;-81
2021/10/31 09:44:50;;;;;;;7.60;6.90;;;16.60;1.00;17.30;99647.00;;;;5029192;28;20512;-81
2021/10/31 09:47:25;;;;;;;7.37;6.67;;;16.70;1.00;17.40;99641.00;;;;5009043;28;20912;-80
2021/10/31 09:49:54;;;;;;;7.97;7.20;;;16.70;1.00;17.30;99647.00;;;;5022104;28;20477;-80
2021/10/31 09:52:26;;;;;;;7.83;6.73;;;16.80;1.00;17.40;99641.00;;;;5023786;28;20456;-80
2021/10/31 09:54:56;;;;;;;8.60;7.70;;;16.70;1.00;17.50;99645.00;;;;4999936;28;20524;-81
2021/10/31 09:57:26;;;;;;;8.43;7.63;;;16.90;1.00;17.60;99613.00;;;;5025792;28;20548;-81
2021/10/31 09:59:57;;;;;;;7.43;6.83;;;16.90;1.00;17.60;99530.00;;;;5008427;28;21067;-81
2021/10/31 10:02:47;;;;;;;7.87;7.07;;;16.90;1.00;17.60;99629.00;;;;5025061;28;20973;-81
2021/10/31 10:05:24;;;;;;;8.93;7.47;;;17.00;1.00;17.60;99623.00;;;;5011491;28;20550;-81
2021/10/31 10:08:10;;;;;;;8.87;8.07;;;16.90;1.00;17.70;99629.00;;;;5025594;28;20445;-80
2021/10/31 10:10:49;;;;;;;8.97;8.17;;;17.10;1.00;17.80;99603.00;;;;5006372;28;20848;-80
2021/10/31 10:13:21;;;;;;;8.60;7.80;;;17.20;1.00;18.00;99642.00;;;;5004903;28;20448;-80
2021/10/31 10:15:51;;;;;;;8.90;8.00;;;17.30;1.00;18.20;99623.00;;;;5001004;28;21416;-81
2021/10/31 10:18:34;;;;;;;7.80;7.10;;;17.40;1.00;18.40;99619.00;;;;5015776;28;20527;-81
2021/10/31 10:21:18;;;;;;;8.00;6.90;;;17.60;1.00;18.50;99529.00;;;;4999455;28;20461;-82
2021/10/31 10:23:49;;;;;;;7.80;6.97;;;17.70;1.00;18.60;99619.00;;;;5022908;28;20502;-81
2021/10/31 10:26:31;;;;;;;7.37;6.63;;;17.80;1.00;18.80;99626.00;;;;5005341;28;20462;-81
2021/10/31 10:29:19;;;;;;;8.70;7.60;;;17.90;1.00;18.90;99636.00;;;;5015731;28;20485;-81
2021/10/31 10:31:51;;;;;;;9.03;8.13;;;18.00;1.00;19.00;99624.00;;;;5007468;28;20522;-81
2021/10/31 10:34:38;;;;;;;9.00;8.10;;;18.10;1.00;19.00;99613.00;;;;5021562;28;20520;-81
2021/10/31 10:37:10;;;;;;;8.57;7.70;;;18.10;1.00;18.90;99609.00;;;;5021596;28;20453;-81
2021/10/31 10:39:40;;;;;;;8.73;7.93;;;17.90;1.00;18.80;99613.00;;;;5024291;28;20577;-82
2021/10/31 10:42:10;;;;;;;10.30;7.43;;;17.90;1.00;18.90;99594.00;;;;5022857;28;20461;-82
2021/10/31 10:44:40;;;;;;;7.80;6.90;;;17.90;1.00;18.80;99591.00;;;;5021987;28;20550;-81
2021/10/31 10:47:12;;;;;;;9.80;6.60;;;17.80;1.00;18.90;99591.00;;;;5021513;28;20453;-82
2021/10/31 10:49:44;;;;;;;12.80;7.37;;;17.90;1.00;18.90;99579.00;;;;5022520;28;20456;-80
2021/10/31 10:52:24;;;;;;;7.60;6.60;;;18.10;1.00;19.10;99546.00;;;;5023532;28;20450;-82
2021/10/31 10:55:01;;;;;;;12.00;10.80;;;18.30;1.00;19.10;99584.00;;;;5010757;28;20538;-82
2021/10/31 10:57:33;;;;;;;5.50;5.00;;;18.30;1.00;19.20;99552.00;;;;5020390;28;20535;-80
2021/10/31 11:00:07;;;;;;;8.60;6.10;;;18.30;1.00;19.30;99552.00;;;;5022528;28;21072;-80
2021/10/31 11:02:36;;;;;;;7.07;5.90;;;18.40;1.00;19.60;99564.00;;;;5011934;28;20448;-81
2021/10/31 11:05:09;;;;;;;6.00;5.40;;;18.70;1.00;19.80;99543.00;;;;5022344;28;20489;-81
2021/10/31 11:07:42;;;;;;;6.30;5.07;;;19.00;1.00;20.00;99529.00;;;;4997865;28;21053;-80
2021/10/31 11:10:20;;;;;;;7.30;5.43;;;19.00;1.00;20.00;99537.00;;;;5021950;28;20488;-82